Time;durP1;ratioP1;P1;durP2;ratioP2;P2;SDS_P1;SDS_P2;PMS_P1;PMS_P2;Temp;Humidity;BMP_temperature;BMP_pressure;BME280_temperature;BME280_humidity;BME280_pressure;Samples;Min_cycle;Max_cycle;Signal;HPM_P1;HPM_P2
2021/08/09 00:01:56;;;;;;;8.07;3.78;;;19.20;99.90;;;;;;4221321;28;20031;-61
2021/08/09 00:03:57;;;;;;;7.25;4.43;;;19.20;99.90;;;;;;4223767;28;20388;-61
2021/08/09 00:05:59;;;;;;;6.63;3.30;;;19.20;99.90;;;;;;4223172;28;20080;-61
2021/08/09 00:08:01;;;;;;;5.72;3.75;;;19.30;99.90;;;;;;4222852;28;20043;-61
2021/08/09 00:10:02;;;;;;;6.30;3.58;;;19.20;99.90;;;;;;4223216;28;20020;-61
2021/08/09 00:12:04;;;;;;;5.65;3.97;;;19.10;99.90;;;;;;4222586;28;20028;-61
2021/08/09 00:14:05;;;;;;;6.28;3.53;;;19.00;99.90;;;;;;4222832;28;20080;-61
2021/08/09 00:16:06;;;;;;;7.00;4.38;;;18.90;99.90;;;;;;4223007;28;20027;-61
2021/08/09 00:18:08;;;;;;;8.95;3.72;;;18.90;99.90;;;;;;4223382;28;20089;-61
2021/08/09 00:20:11;;;;;;;6.50;3.78;;;18.90;99.90;;;;;;4222778;28;20039;-61
2021/08/09 00:22:12;;;;;;;7.20;4.13;;;19.00;99.90;;;;;;4223076;28;20036;-62
2021/08/09 00:24:14;;;;;;;6.28;3.47;;;19.00;99.90;;;;;;4222600;28;20024;-60
2021/08/09 00:26:16;;;;;;;8.60;4.05;;;19.00;99.90;;;;;;4223425;28;20536;-61
2021/08/09 00:28:17;;;;;;;7.18;3.40;;;19.00;99.90;;;;;;4222229;28;20475;-61
2021/08/09 00:30:19;;;;;;;9.15;3.97;;;19.00;99.90;;;;;;4223156;28;20554;-61
2021/08/09 00:32:20;;;;;;;7.47;3.58;;;19.00;99.90;;;;;;4221476;28;20805;-61
2021/08/09 00:34:21;;;;;;;8.68;3.60;;;19.10;99.90;;;;;;4223163;28;20124;-61
2021/08/09 00:36:22;;;;;;;9.02;4.03;;;19.10;99.90;;;;;;4222596;28;20036;-61
2021/08/09 00:38:23;;;;;;;5.53;3.75;;;19.10;99.90;;;;;;4223214;28;20108;-61
2021/08/09 00:40:24;;;;;;;7.20;3.78;;;19.10;99.90;;;;;;4222213;28;20556;-60
2021/08/09 00:42:26;;;;;;;10.07;3.85;;;19.20;99.90;;;;;;4222756;28;20448;-61
2021/08/09 00:44:27;;;;;;;12.18;5.10;;;19.20;99.90;;;;;;4222402;28;20438;-61
2021/08/09 00:46:29;;;;;;;7.95;3.75;;;19.20;99.90;;;;;;4222720;28;20043;-61
2021/08/09 00:48:34;;;;;;;6.95;4.03;;;19.10;99.90;;;;;;4222366;28;20084;-60
2021/08/09 00:50:35;;;;;;;5.93;3.60;;;19.10;99.90;;;;;;4222666;28;20447;-61
2021/08/09 00:52:36;;;;;;;5.13;3.33;;;19.10;99.90;;;;;;4222436;28;20544;-61
2021/08/09 00:54:37;;;;;;;6.22;3.65;;;19.10;99.90;;;;;;4222026;28;20055;-61
2021/08/09 00:56:40;;;;;;;9.68;4.55;;;19.10;99.90;;;;;;4222105;28;20096;-61
2021/08/09 00:58:42;;;;;;;4.78;3.70;;;19.10;99.90;;;;;;4222181;28;20027;-61
2021/08/09 01:00:43;;;;;;;6.32;4.10;;;19.10;99.90;;;;;;4222124;28;20039;-61
2021/08/09 01:02:44;;;;;;;9.20;4.00;;;19.10;99.90;;;;;;4221593;28;20590;-61
2021/08/09 01:04:46;;;;;;;6.25;4.47;;;19.10;99.90;;;;;;4222780;28;20468;-59
2021/08/09 01:06:49;;;;;;;7.50;4.80;;;19.10;99.90;;;;;;4222382;28;20040;-61
2021/08/09 01:09:19;;;;;;;11.40;4.57;;;19.00;99.90;;;;;;4223012;28;20547;-61
2021/08/09 01:11:20;;;;;;;7.93;4.40;;;18.90;99.90;;;;;;4221858;28;20027;-60
2021/08/09 01:13:27;;;;;;;7.70;4.43;;;18.80;99.90;;;;;;4223002;28;20432;-61
2021/08/09 01:15:38;;;;;;;8.13;4.30;;;18.80;99.90;;;;;;4221555;28;20039;-61
2021/08/09 01:17:44;;;;;;;9.43;4.55;;;18.70;99.90;;;;;;4222392;28;20027;-61
2021/08/09 01:20:23;;;;;;;5.20;3.80;;;18.70;99.90;;;;;;4221907;28;20077;-60
2021/08/09 01:22:39;;;;;;;11.00;5.35;;;18.60;99.90;;;;;;4189897;28;20102;-61
2021/08/09 01:24:50;;;;;;;5.75;4.30;;;18.60;99.90;;;;;;4213435;28;20532;-61
2021/08/09 01:27:03;;;;;;;9.15;4.53;;;18.60;99.90;;;;;;4225553;28;20019;-61
2021/08/09 01:29:14;;;;;;;14.23;4.78;;;18.50;99.90;;;;;;4224563;27;20069;-62
2021/08/09 01:31:17;;;;;;;8.93;4.95;;;18.50;99.90;;;;;;4225727;28;20552;-61
2021/08/09 01:33:19;;;;;;;6.25;4.60;;;18.40;99.90;;;;;;4224774;28;20108;-61
2021/08/09 01:35:23;;;;;;;10.30;4.88;;;18.40;99.90;;;;;;4225532;28;20015;-61
2021/08/09 01:37:27;;;;;;;5.75;4.35;;;18.50;99.90;;;;;;4225133;28;20471;-61
2021/08/09 01:39:29;;;;;;;5.93;3.88;;;18.50;99.90;;;;;;4225842;28;20537;-61
2021/08/09 01:41:31;;;;;;;8.23;4.35;;;18.40;99.90;;;;;;4224779;28;20032;-61
2021/08/09 01:43:33;;;;;;;8.88;3.90;;;18.40;99.90;;;;;;4225565;28;20089;-61
2021/08/09 01:45:35;;;;;;;5.25;4.13;;;18.40;99.90;;;;;;4224702;28;20810;-61
2021/08/09 01:47:38;;;;;;;8.75;4.47;;;18.40;99.90;;;;;;4225294;28;20484;-62
2021/08/09 01:49:40;;;;;;;7.43;4.35;;;18.30;99.90;;;;;;4224366;28;20049;-61
2021/08/09 01:51:41;;;;;;;8.77;3.83;;;18.30;99.90;;;;;;4225128;28;20036;-61
2021/08/09 01:53:43;;;;;;;9.23;4.53;;;18.20;99.90;;;;;;4225010;28;20561;-61
2021/08/09 01:55:44;;;;;;;5.75;4.60;;;18.20;99.90;;;;;;4225049;28;20112;-61
2021/08/09 01:57:46;;;;;;;8.30;4.82;;;18.20;99.90;;;;;;4223723;28;20047;-61
2021/08/09 01:59:47;;;;;;;10.05;5.78;;;18.10;99.90;;;;;;4224797;28;20032;-61
2021/08/09 02:01:50;;;;;;;7.18;5.22;;;18.10;99.90;;;;;;4224976;28;20105;-61
2021/08/09 02:03:51;;;;;;;7.22;5.22;;;18.00;99.90;;;;;;4224396;28;20470;-61
2021/08/09 02:05:52;;;;;;;7.78;5.60;;;17.90;99.90;;;;;;4225384;28;20084;-61
2021/08/09 02:07:55;;;;;;;11.77;5.47;;;17.80;99.90;;;;;;4224968;28;20431;-61
2021/08/09 02:09:56;;;;;;;12.40;5.57;;;17.80;99.90;;;;;;4225060;28;20471;-61
2021/08/09 02:12:06;;;;;;;7.85;5.35;;;17.80;99.90;;;;;;4224678;28;20027;-61
2021/08/09 02:14:11;;;;;;;8.85;5.75;;;17.80;99.90;;;;;;4225334;28;20088;-61
2021/08/09 02:16:38;;;;;;;12.10;5.75;;;17.80;99.90;;;;;;4224530;28;20476;-61
2021/08/09 02:18:43;;;;;;;7.07;5.60;;;17.80;99.90;;;;;;4224471;28;20085;-61
2021/08/09 02:20:45;;;;;;;6.88;4.88;;;17.80;99.90;;;;;;4224183;28;20019;-61
2021/08/09 02:22:51;;;;;;;11.80;5.53;;;17.90;99.90;;;;;;4225249;28;20092;-61
2021/08/09 02:25:07;;;;;;;7.88;5.53;;;17.80;99.90;;;;;;4224735;28;20028;-61
2021/08/09 02:27:12;;;;;;;9.15;5.18;;;17.80;99.90;;;;;;4224848;28;20092;-60
2021/08/09 02:29:18;;;;;;;7.13;5.07;;;17.80;99.90;;;;;;4223948;28;20085;-61
2021/08/09 02:31:21;;;;;;;9.05;5.10;;;17.80;99.90;;;;;;4224336;28;20047;-62
2021/08/09 02:33:23;;;;;;;11.82;5.53;;;17.80;99.90;;;;;;4223630;28;20023;-61
2021/08/09 02:35:26;;;;;;;6.03;3.92;;;17.80;99.90;;;;;;4224919;28;20077;-61
2021/08/09 02:37:28;;;;;;;6.25;3.90;;;17.90;99.90;;;;;;4223845;28;20032;-61
2021/08/09 02:39:32;;;;;;;7.05;3.83;;;18.00;99.90;;;;;;4224817;28;20556;-61
2021/08/09 02:41:34;;;;;;;6.75;3.97;;;18.10;99.90;;;;;;4224413;28;20580;-61
2021/08/09 02:43:35;;;;;;;3.85;2.53;;;18.20;99.90;;;;;;4224477;28;20036;-61
2021/08/09 02:45:37;;;;;;;4.55;2.80;;;18.30;99.90;;;;;;4223728;27;20051;-61
2021/08/09 02:47:40;;;;;;;5.88;3.25;;;18.50;99.90;;;;;;4224556;28;20090;-61
2021/08/09 02:49:48;;;;;;;4.80;3.15;;;18.80;99.90;;;;;;4224193;28;20136;-61
2021/08/09 02:51:49;;;;;;;2.88;2.53;;;19.00;99.90;;;;;;4224436;28;20079;-60
2021/08/09 02:53:52;;;;;;;4.65;2.67;;;19.10;99.90;;;;;;4224068;28;20129;-62
2021/08/09 02:55:57;;;;;;;3.95;2.40;;;19.20;99.90;;;;;;4224167;28;20027;-62
2021/08/09 02:58:06;;;;;;;6.20;2.20;;;19.40;99.90;;;;;;4223719;28;20024;-61
2021/08/09 03:00:08;;;;;;;3.70;2.60;;;19.60;99.90;;;;;;4223677;28;20020;-61
2021/08/09 03:02:10;;;;;;;6.40;2.55;;;19.80;99.90;;;;;;4224338;28;20069;-61
2021/08/09 03:04:15;;;;;;;6.00;2.45;;;20.00;99.90;;;;;;4224200;28;20084;-61
2021/08/09 03:06:17;;;;;;;5.13;2.38;;;20.10;99.90;;;;;;4224938;28;20036;-61
2021/08/09 03:08:20;;;;;;;3.80;2.50;;;20.20;99.90;;;;;;4223988;28;20132;-61
2021/08/09 03:10:21;;;;;;;5.43;2.20;;;20.20;99.90;;;;;;4224020;28;20491;-60
2021/08/09 03:12:22;;;;;;;5.22;2.33;;;20.30;99.90;;;;;;4223567;28;20077;-60
2021/08/09 03:14:25;;;;;;;5.18;3.22;;;20.40;99.90;;;;;;4222605;28;20496;-61
2021/08/09 03:16:26;;;;;;;8.45;2.72;;;20.50;99.90;;;;;;4223114;28;20027;-61
2021/08/09 03:18:33;;;;;;;4.05;2.65;;;20.60;99.90;;;;;;4223883;28;20695;-61
2021/08/09 03:20:34;;;;;;;3.78;2.40;;;20.70;99.90;;;;;;4223398;28;20101;-61
2021/08/09 03:22:35;;;;;;;4.93;2.67;;;20.70;99.90;;;;;;4223771;28;20674;-61
2021/08/09 03:24:37;;;;;;;7.22;2.95;;;20.80;99.90;;;;;;4223227;28;20461;-61
2021/08/09 03:26:39;;;;;;;3.65;2.63;;;20.90;99.90;;;;;;4223498;28;20639;-61
2021/08/09 03:28:40;;;;;;;2.78;2.40;;;21.00;99.90;;;;;;4222972;28;20540;-61
2021/08/09 03:30:41;;;;;;;3.83;2.55;;;21.10;99.90;;;;;;4222790;28;20088;-61
2021/08/09 03:32:42;;;;;;;5.63;2.22;;;21.20;99.90;;;;;;4223435;28;20027;-61
2021/08/09 03:34:43;;;;;;;3.50;2.65;;;21.20;99.90;;;;;;4223735;28;20036;-61
2021/08/09 03:36:46;;;;;;;3.72;2.15;;;21.20;99.90;;;;;;4224315;28;20445;-60
2021/08/09 03:38:47;;;;;;;6.25;3.22;;;21.20;99.90;;;;;;4223616;28;20096;-61
2021/08/09 03:40:48;;;;;;;3.97;2.38;;;21.20;99.90;;;;;;4223587;28;20429;-60
2021/08/09 03:42:49;;;;;;;4.18;2.70;;;21.20;99.90;;;;;;4222058;28;20043;-61
2021/08/09 03:44:51;;;;;;;4.38;3.55;;;21.20;99.90;;;;;;4223199;28;20487;-61
2021/08/09 03:46:52;;;;;;;5.03;3.53;;;21.20;99.90;;;;;;4222943;28;20031;-61
2021/08/09 03:48:53;;;;;;;6.18;3.22;;;21.40;99.90;;;;;;4223447;28;20100;-60
2021/08/09 03:50:54;;;;;;;4.05;2.42;;;21.70;99.90;;;;;;4222399;28;20032;-60
2021/08/09 03:52:55;;;;;;;5.05;3.17;;;22.00;99.90;;;;;;4223336;28;20084;-61
2021/08/09 03:54:56;;;;;;;4.55;2.67;;;22.20;99.90;;;;;;4222770;28;20089;-61
2021/08/09 03:56:57;;;;;;;7.30;3.38;;;22.30;99.90;;;;;;4222675;28;20032;-61
2021/08/09 03:58:59;;;;;;;6.55;2.65;;;22.30;99.90;;;;;;4222266;28;20096;-61
2021/08/09 04:01:00;;;;;;;3.28;2.83;;;22.20;99.90;;;;;;4223848;27;20038;-59
2021/08/09 04:03:02;;;;;;;4.35;2.58;;;22.20;99.90;;;;;;4239428;27;20482;-61
2021/08/09 04:05:04;;;;;;;3.72;2.90;;;22.10;99.90;;;;;;4238799;27;20092;-61
2021/08/09 04:07:06;;;;;;;5.40;2.45;;;22.10;99.90;;;;;;4239882;27;20698;-60
2021/08/09 04:09:07;;;;;;;3.72;2.63;;;22.10;99.90;;;;;;4239589;27;20027;-61
2021/08/09 04:11:09;;;;;;;6.55;2.75;;;22.20;99.90;;;;;;4239654;27;20441;-61
2021/08/09 04:13:10;;;;;;;5.95;2.40;;;22.10;99.90;;;;;;4238417;27;20023;-64
2021/08/09 04:15:11;;;;;;;7.45;2.67;;;22.10;99.90;;;;;;4222542;28;20035;-59
2021/08/09 04:17:12;;;;;;;4.57;2.53;;;22.00;99.90;;;;;;4221432;28;20089;-60
2021/08/09 04:19:13;;;;;;;4.88;2.47;;;21.90;99.90;;;;;;4223630;28;20044;-59
2021/08/09 04:21:14;;;;;;;8.73;3.22;;;21.90;99.90;;;;;;4222251;28;20460;-60
2021/08/09 04:23:15;;;;;;;4.03;2.55;;;21.80;99.90;;;;;;4222625;28;20044;-61
2021/08/09 04:25:17;;;;;;;5.22;2.33;;;21.90;99.90;;;;;;4221947;28;20077;-60
2021/08/09 04:27:18;;;;;;;3.85;2.30;;;21.90;99.90;;;;;;4222000;28;20039;-59
2021/08/09 04:29:19;;;;;;;9.23;3.35;;;21.90;99.90;;;;;;4221798;28;20043;-63
2021/08/09 04:31:20;;;;;;;4.18;2.63;;;21.90;99.90;;;;;;4222828;28;20027;-60
2021/08/09 04:33:21;;;;;;;4.05;2.63;;;22.00;99.90;;;;;;4222064;28;20534;-60
2021/08/09 04:35:22;;;;;;;4.47;2.35;;;22.00;99.90;;;;;;4222305;28;20031;-61
2021/08/09 04:37:24;;;;;;;3.63;2.25;;;22.00;99.90;;;;;;4222573;28;20035;-60
2021/08/09 04:39:25;;;;;;;10.07;3.05;;;22.00;99.90;;;;;;4221550;28;20043;-61
2021/08/09 04:41:26;;;;;;;5.30;2.55;;;22.40;99.90;;;;;;4198080;28;20093;-62
2021/08/09 04:43:27;;;;;;;4.22;2.58;;;22.80;99.90;;;;;;4219917;28;20043;-61
2021/08/09 04:45:28;;;;;;;3.50;2.65;;;23.20;99.90;;;;;;4220837;28;20043;-60
2021/08/09 04:47:29;;;;;;;7.15;2.40;;;23.50;99.90;;;;;;4219857;28;20031;-60
2021/08/09 04:49:30;;;;;;;8.25;3.05;;;23.70;99.90;;;;;;4208921;28;20097;-62
2021/08/09 04:51:31;;;;;;;7.35;2.85;;;23.90;99.90;;;;;;4219586;27;20089;-61
2021/08/09 04:53:32;;;;;;;5.38;3.33;;;24.20;99.90;;;;;;4220309;28;20035;-61
2021/08/09 04:55:34;;;;;;;8.43;3.17;;;24.30;99.90;;;;;;4205996;28;20149;-60
2021/08/09 04:57:35;;;;;;;8.60;4.18;;;24.40;99.90;;;;;;4220685;28;20120;-60
2021/08/09 04:59:36;;;;;;;13.07;5.38;;;24.40;99.90;;;;;;4220081;28;20096;-61
2021/08/09 05:01:37;;;;;;;10.32;4.57;;;24.30;99.90;;;;;;4220958;27;20039;-61
2021/08/09 05:03:39;;;;;;;4.47;2.42;;;24.30;99.90;;;;;;4221098;28;20124;-61
2021/08/09 05:05:44;;;;;;;9.18;2.42;;;24.00;99.90;;;;;;4220862;28;20080;-62
2021/08/09 05:07:45;;;;;;;3.92;2.60;;;23.80;99.90;;;;;;4222610;28;20085;-61
2021/08/09 05:09:46;;;;;;;11.05;2.75;;;23.70;99.90;;;;;;4222469;28;20023;-62
2021/08/09 05:11:47;;;;;;;10.25;2.88;;;23.70;99.90;;;;;;4222150;28;20076;-60
2021/08/09 05:13:48;;;;;;;10.55;2.88;;;23.70;99.90;;;;;;4221398;28;20562;-62
2021/08/09 05:15:49;;;;;;;6.28;2.72;;;23.50;99.90;;;;;;4222716;28;20028;-61
2021/08/09 05:17:51;;;;;;;11.27;3.72;;;23.50;99.90;;;;;;4221509;28;20035;-61
2021/08/09 05:19:53;;;;;;;20.80;4.45;;;23.40;99.90;;;;;;4221952;28;20072;-61
2021/08/09 05:21:54;;;;;;;10.63;3.05;;;23.40;99.90;;;;;;4220916;28;20028;-60
2021/08/09 05:23:56;;;;;;;7.47;2.90;;;23.60;99.90;;;;;;4222004;28;20100;-62
2021/08/09 05:25:57;;;;;;;7.95;3.50;;;23.90;99.90;;;;;;4221508;28;20015;-63
2021/08/09 05:27:59;;;;;;;5.10;4.05;;;24.30;99.90;;;;;;4221824;28;20043;-62
2021/08/09 05:30:00;;;;;;;3.97;2.88;;;24.20;99.90;;;;;;4221215;28;20085;-62
2021/08/09 05:32:01;;;;;;;2.80;2.53;;;24.40;99.90;;;;;;4221399;28;20039;-64
2021/08/09 05:34:02;;;;;;;7.50;2.25;;;24.80;99.90;;;;;;4221017;28;20055;-61
2021/08/09 05:36:04;;;;;;;8.05;3.30;;;25.20;99.90;;;;;;4217169;28;20103;-62
2021/08/09 05:38:05;;;;;;;4.10;2.67;;;25.70;99.90;;;;;;4219788;28;20100;-61
2021/08/09 05:40:07;;;;;;;4.55;2.63;;;26.00;99.90;;;;;;4212486;28;20866;-61
2021/08/09 05:42:08;;;;;;;4.80;2.15;;;26.20;99.90;;;;;;4221857;28;20195;-65
2021/08/09 05:44:10;;;;;;;4.53;2.45;;;26.50;99.90;;;;;;4221379;28;20047;-61
2021/08/09 05:46:11;;;;;;;9.73;3.95;;;26.90;99.90;;;;;;4229710;28;20035;-62
2021/08/09 05:48:12;;;;;;;4.32;2.35;;;27.30;99.90;;;;;;4232290;28;20044;-61
2021/08/09 05:50:13;;;;;;;5.05;2.42;;;27.50;99.90;;;;;;4222165;28;20471;-61
2021/08/09 05:52:25;;;;;;;7.80;2.97;;;27.70;99.90;;;;;;4220958;28;20088;-66
2021/08/09 05:54:26;;;;;;;22.77;6.95;;;27.40;99.40;;;;;;4221861;28;20564;-63
2021/08/09 05:56:27;;;;;;;11.05;3.40;;;27.10;99.90;;;;;;4220950;28;20036;-64
2021/08/09 05:58:28;;;;;;;4.60;2.83;;;26.70;99.90;;;;;;4222040;28;20089;-62
2021/08/09 06:00:29;;;;;;;4.50;2.60;;;25.90;99.90;;;;;;4221335;28;20027;-61
2021/08/09 06:02:30;;;;;;;8.23;2.60;;;25.30;99.90;;;;;;4222231;28;20031;-64
2021/08/09 06:04:32;;;;;;;8.35;3.15;;;24.80;99.90;;;;;;4219564;28;20100;-64
2021/08/09 06:06:33;;;;;;;6.70;3.13;;;24.40;99.90;;;;;;4222314;28;20027;-64
2021/08/09 06:08:34;;;;;;;18.67;4.40;;;24.00;99.90;;;;;;4224329;28;20032;-62
2021/08/09 06:10:35;;;;;;;5.93;2.20;;;23.90;99.90;;;;;;4220407;28;20109;-64
2021/08/09 06:12:37;;;;;;;10.20;2.88;;;23.80;99.90;;;;;;4224650;28;20035;-62
2021/08/09 06:14:39;;;;;;;3.75;2.63;;;23.80;99.90;;;;;;4222239;28;20023;-64
2021/08/09 06:16:40;;;;;;;7.03;2.63;;;23.60;99.90;;;;;;4224820;28;20521;-63
2021/08/09 06:18:41;;;;;;;10.73;3.10;;;23.40;99.90;;;;;;4224002;28;20088;-62
2021/08/09 06:20:42;;;;;;;6.78;2.70;;;23.30;99.90;;;;;;4224644;28;20039;-65
2021/08/09 06:22:43;;;;;;;7.85;3.20;;;23.20;99.90;;;;;;4223606;28;20055;-63
2021/08/09 06:24:44;;;;;;;2.88;2.50;;;23.20;99.90;;;;;;4224164;28;20052;-64
2021/08/09 06:26:45;;;;;;;3.60;2.38;;;23.10;99.90;;;;;;4223595;28;20476;-62
2021/08/09 06:28:46;;;;;;;3.60;2.40;;;23.00;99.90;;;;;;4223004;28;20028;-64
2021/08/09 06:30:48;;;;;;;2.83;2.50;;;23.00;99.90;;;;;;4223768;28;20085;-62
2021/08/09 06:32:49;;;;;;;4.40;2.75;;;22.80;99.90;;;;;;4224513;28;20141;-62
2021/08/09 06:34:50;;;;;;;5.05;3.17;;;22.70;99.90;;;;;;4224309;28;20028;-63
2021/08/09 06:36:51;;;;;;;5.97;2.65;;;22.70;99.90;;;;;;4225325;28;20035;-63
2021/08/09 06:38:52;;;;;;;7.35;2.80;;;22.80;99.90;;;;;;4224638;28;20031;-62
2021/08/09 06:40:53;;;;;;;9.50;3.28;;;22.90;99.90;;;;;;4225008;28;20544;-62
2021/08/09 06:42:54;;;;;;;5.50;2.92;;;22.90;99.90;;;;;;4225039;28;20069;-63
2021/08/09 06:44:55;;;;;;;8.27;4.65;;;22.90;99.90;;;;;;4224206;28;20122;-63
2021/08/09 06:46:57;;;;;;;11.10;4.18;;;22.90;99.90;;;;;;4223279;28;20081;-63
2021/08/09 06:48:58;;;;;;;2.85;2.63;;;22.90;99.90;;;;;;4223387;28;20452;-64
2021/08/09 06:50:59;;;;;;;3.63;2.60;;;22.80;99.90;;;;;;4225436;27;20815;-63
2021/08/09 06:53:00;;;;;;;5.78;3.38;;;22.90;99.90;;;;;;4223582;28;20044;-63
2021/08/09 06:55:01;;;;;;;5.38;2.97;;;23.00;99.90;;;;;;4225009;28;20080;-63
2021/08/09 06:57:03;;;;;;;5.28;3.63;;;23.10;99.90;;;;;;4222819;28;20080;-63
2021/08/09 06:59:04;;;;;;;6.85;3.00;;;23.30;99.90;;;;;;4223952;28;20578;-63
2021/08/09 07:01:05;;;;;;;5.63;2.92;;;23.50;99.90;;;;;;4223779;28;20032;-63
2021/08/09 07:03:09;;;;;;;8.70;3.25;;;23.70;99.90;;;;;;4224967;27;20031;-63
2021/08/09 07:05:10;;;;;;;4.35;2.83;;;23.80;99.90;;;;;;4225465;27;20053;-62
2021/08/09 07:07:11;;;;;;;3.97;2.60;;;23.90;99.90;;;;;;4224885;28;20019;-63
2021/08/09 07:09:14;;;;;;;5.57;3.13;;;24.20;99.90;;;;;;4223925;28;20112;-62
2021/08/09 07:11:15;;;;;;;3.53;2.53;;;24.40;99.90;;;;;;4224428;27;20108;-63
2021/08/09 07:13:16;;;;;;;2.60;2.40;;;24.60;99.90;;;;;;4223641;28;20053;-63
2021/08/09 07:15:18;;;;;;;4.80;2.47;;;24.80;99.90;;;;;;4223511;28;20031;-63
2021/08/09 07:17:19;;;;;;;3.40;2.55;;;24.70;99.90;;;;;;4223710;28;20109;-62
2021/08/09 07:19:20;;;;;;;5.78;3.75;;;24.60;99.90;;;;;;4222562;27;20040;-63
2021/08/09 07:21:21;;;;;;;9.48;4.07;;;24.40;99.90;;;;;;4226848;27;20651;-63
2021/08/09 07:23:22;;;;;;;7.97;3.80;;;24.30;99.90;;;;;;4223666;28;20088;-61
2021/08/09 07:25:23;;;;;;;7.78;3.65;;;24.30;99.90;;;;;;4228789;27;20042;-64
2021/08/09 07:27:24;;;;;;;8.75;3.95;;;24.30;99.90;;;;;;4240705;27;20446;-62
2021/08/09 07:29:27;;;;;;;7.95;3.30;;;24.40;99.90;;;;;;4241280;27;20026;-62
2021/08/09 07:31:29;;;;;;;12.73;4.68;;;24.50;99.90;;;;;;4223584;27;20065;-63
2021/08/09 07:33:30;;;;;;;6.80;3.33;;;24.60;99.90;;;;;;4226060;27;20023;-63
2021/08/09 07:35:31;;;;;;;8.68;3.42;;;24.80;99.90;;;;;;4234720;27;20036;-63
2021/08/09 07:37:32;;;;;;;9.30;3.85;;;24.80;99.90;;;;;;4224688;28;20402;-63
2021/08/09 07:39:36;;;;;;;5.68;4.47;;;24.50;99.90;;;;;;4223135;28;20570;-63
2021/08/09 07:41:37;;;;;;;9.32;4.15;;;24.40;99.90;;;;;;4223531;28;20072;-63
2021/08/09 07:43:38;;;;;;;7.70;3.58;;;24.40;99.90;;;;;;4222950;28;20116;-63
2021/08/09 07:45:39;;;;;;;7.32;3.88;;;24.50;99.90;;;;;;4223152;28;20099;-63
2021/08/09 07:47:40;;;;;;;9.50;4.22;;;24.70;99.90;;;;;;4223410;28;20136;-62
2021/08/09 07:49:41;;;;;;;7.18;2.97;;;24.80;99.90;;;;;;4222907;28;20636;-62
2021/08/09 07:51:42;;;;;;;7.68;3.17;;;25.10;99.90;;;;;;4223262;28;20039;-63
2021/08/09 07:53:44;;;;;;;4.30;2.70;;;25.40;99.90;;;;;;4222362;28;20104;-63
2021/08/09 07:55:45;;;;;;;5.20;3.30;;;25.60;99.90;;;;;;4227272;27;20023;-63
2021/08/09 07:57:46;;;;;;;8.20;2.90;;;25.80;99.90;;;;;;4222873;28;20491;-63
2021/08/09 07:59:47;;;;;;;5.72;2.65;;;26.10;99.90;;;;;;4221044;27;20472;-62
2021/08/09 08:01:48;;;;;;;6.28;3.10;;;26.30;99.90;;;;;;4231990;27;20023;-65
2021/08/09 08:03:49;;;;;;;6.53;2.70;;;26.40;99.90;;;;;;4240686;27;20031;-63
2021/08/09 08:05:51;;;;;;;2.78;2.53;;;26.60;99.90;;;;;;4239479;27;20039;-63
2021/08/09 08:07:52;;;;;;;8.32;2.92;;;26.80;99.90;;;;;;4240734;27;20392;-63
2021/08/09 08:09:53;;;;;;;3.13;2.40;;;27.10;99.90;;;;;;4225717;27;20397;-64
2021/08/09 08:11:54;;;;;;;4.20;2.30;;;27.30;99.90;;;;;;4226500;27;20027;-63
2021/08/09 08:13:55;;;;;;;7.28;2.45;;;27.50;99.90;;;;;;4222932;28;20434;-63
2021/08/09 08:15:56;;;;;;;6.70;2.63;;;27.40;99.90;;;;;;4222714;28;20084;-63
2021/08/09 08:17:57;;;;;;;5.03;2.33;;;27.40;99.90;;;;;;4222657;28;20039;-63
2021/08/09 08:19:58;;;;;;;8.35;2.88;;;27.40;99.90;;;;;;4222440;28;20600;-62
2021/08/09 08:22:00;;;;;;;8.63;2.30;;;27.60;99.80;;;;;;4222192;28;20092;-63
2021/08/09 08:24:01;;;;;;;3.05;2.40;;;27.80;99.80;;;;;;4222469;28;20019;-64
2021/08/09 08:26:04;;;;;;;4.13;2.55;;;28.00;99.50;;;;;;4222695;28;20040;-63
2021/08/09 08:28:05;;;;;;;6.15;2.70;;;28.20;99.60;;;;;;4222085;28;20365;-62
2021/08/09 08:30:07;;;;;;;3.30;3.00;;;28.30;99.60;;;;;;4225556;27;20471;-63
2021/08/09 08:32:08;;;;;;;3.35;2.58;;;28.50;98.90;;;;;;4221461;28;20141;-63
2021/08/09 08:34:09;;;;;;;4.85;2.20;;;28.50;98.70;;;;;;4222476;28;20036;-63
2021/08/09 08:36:10;;;;;;;10.27;2.42;;;28.60;98.70;;;;;;4221999;28;20031;-64
2021/08/09 08:38:12;;;;;;;3.38;2.63;;;28.80;98.50;;;;;;4222554;28;20386;-63
2021/08/09 08:40:13;;;;;;;7.40;2.50;;;29.00;98.40;;;;;;4222153;28;20040;-64
2021/08/09 08:42:15;;;;;;;5.18;2.35;;;29.20;98.20;;;;;;4222069;28;20760;-62
2021/08/09 08:44:18;;;;;;;4.30;2.53;;;29.30;98.10;;;;;;4222168;28;20031;-62
2021/08/09 08:46:20;;;;;;;10.32;3.25;;;29.40;97.60;;;;;;4222004;28;20512;-63
2021/08/09 08:48:23;;;;;;;3.92;2.22;;;29.30;97.40;;;;;;4222371;28;20031;-64
2021/08/09 08:50:24;;;;;;;5.53;2.50;;;29.30;97.20;;;;;;4221904;28;20101;-63
2021/08/09 08:52:25;;;;;;;5.43;2.58;;;29.30;97.10;;;;;;4223008;28;20035;-63
2021/08/09 08:54:26;;;;;;;6.88;2.22;;;29.30;96.90;;;;;;4222208;28;20043;-64
2021/08/09 08:56:29;;;;;;;3.17;1.90;;;29.20;96.50;;;;;;4222890;28;20032;-64
2021/08/09 08:58:30;;;;;;;8.13;2.38;;;29.20;96.50;;;;;;4221484;28;20081;-61
2021/08/09 09:00:44;;;;;;;2.80;1.88;;;28.90;96.30;;;;;;4222188;28;20028;-63
2021/08/09 09:02:46;;;;;;;4.22;2.00;;;28.50;96.50;;;;;;4221314;28;20023;-62
2021/08/09 09:04:47;;;;;;;2.40;2.08;;;28.50;96.60;;;;;;4225494;28;20035;-62
2021/08/09 09:07:08;;;;;;;2.58;1.92;;;28.60;96.60;;;;;;4237903;27;20559;-62
2021/08/09 09:09:21;;;;;;;2.35;1.85;;;28.80;95.00;;;;;;4238911;27;20035;-62
2021/08/09 09:11:25;;;;;;;2.15;1.92;;;28.90;95.50;;;;;;4236249;27;20073;-63
2021/08/09 09:13:26;;;;;;;2.72;2.17;;;29.10;95.80;;;;;;4222367;28;20091;-63
2021/08/09 09:15:27;;;;;;;4.07;1.85;;;29.40;95.40;;;;;;4219790;28;20116;-63
2021/08/09 09:17:33;;;;;;;2.92;1.77;;;29.80;94.80;;;;;;4225739;28;20084;-63
2021/08/09 09:19:38;;;;;;;3.13;1.92;;;29.70;94.10;;;;;;4221264;28;20495;-62
2021/08/09 09:21:41;;;;;;;2.00;1.80;;;29.70;94.10;;;;;;4222138;28;20081;-63
2021/08/09 09:23:42;;;;;;;3.13;1.77;;;29.40;93.60;;;;;;4221214;28;20040;-63
2021/08/09 09:25:45;;;;;;;4.65;1.88;;;29.10;93.70;;;;;;4221602;28;20051;-63
2021/08/09 09:27:46;;;;;;;3.55;2.10;;;29.00;93.90;;;;;;4222056;28;20552;-62
2021/08/09 09:29:48;;;;;;;3.88;2.00;;;29.20;93.90;;;;;;4222314;28;20525;-62
2021/08/09 09:31:51;;;;;;;2.65;2.08;;;29.30;93.70;;;;;;4221967;28;20089;-63
2021/08/09 09:33:53;;;;;;;2.58;2.03;;;29.40;93.60;;;;;;4222166;28;20921;-63
2021/08/09 09:35:54;;;;;;;2.55;2.22;;;29.40;93.50;;;;;;4221486;28;20035;-62
2021/08/09 09:37:56;;;;;;;5.18;2.65;;;29.20;93.40;;;;;;4222243;28;20066;-62
2021/08/09 09:40:12;;;;;;;2.55;1.90;;;28.90;93.50;;;;;;4220561;28;20028;-61
2021/08/09 09:42:15;;;;;;;2.63;2.10;;;28.90;93.50;;;;;;4223300;28;20093;-62
2021/08/09 09:44:27;;;;;;;4.32;1.92;;;29.10;93.70;;;;;;4225667;28;20024;-63
2021/08/09 09:46:29;;;;;;;4.32;2.00;;;29.30;93.30;;;;;;4225322;28;20403;-62
2021/08/09 09:48:36;;;;;;;4.63;1.95;;;29.60;93.20;;;;;;4225418;28;20073;-63
2021/08/09 09:50:41;;;;;;;3.35;1.83;;;29.80;92.70;;;;;;4224613;28;20031;-62
2021/08/09 09:52:47;;;;;;;3.00;1.85;;;29.80;92.60;;;;;;4225151;28;20444;-64
2021/08/09 09:54:50;;;;;;;7.40;2.47;;;29.70;92.40;;;;;;4222893;28;20043;-63
2021/08/09 09:56:52;;;;;;;4.00;2.00;;;29.60;92.50;;;;;;4225184;27;20027;-62
2021/08/09 09:58:57;;;;;;;2.85;1.73;;;29.60;92.60;;;;;;4223767;27;20048;-62
2021/08/09 10:01:01;;;;;;;3.83;1.77;;;29.70;91.80;;;;;;4225272;28;20516;-62
2021/08/09 10:03:03;;;;;;;3.20;2.17;;;29.70;91.60;;;;;;4224249;28;20027;-62
2021/08/09 10:05:04;;;;;;;3.63;2.08;;;29.60;91.60;;;;;;4225239;28;20108;-61
2021/08/09 10:07:08;;;;;;;3.50;1.83;;;29.40;91.60;;;;;;4224306;28;20081;-61
2021/08/09 10:09:12;;;;;;;1.98;1.73;;;29.40;91.60;;;;;;4225248;28;20448;-63
2021/08/09 10:11:15;;;;;;;1.80;1.70;;;29.30;91.40;;;;;;4223720;28;20057;-61
2021/08/09 10:13:19;;;;;;;1.80;1.35;;;29.20;91.50;;;;;;4225014;28;20080;-62
2021/08/09 10:15:21;;;;;;;3.05;2.00;;;29.10;91.40;;;;;;4223596;28;20039;-63
2021/08/09 10:17:23;;;;;;;2.67;1.60;;;28.90;91.60;;;;;;4224804;28;20028;-62
2021/08/09 10:19:26;;;;;;;2.28;2.03;;;29.00;91.60;;;;;;4224456;28;20080;-63
2021/08/09 10:21:31;;;;;;;11.07;2.22;;;28.90;91.60;;;;;;4224895;28;20023;-61
2021/08/09 10:23:49;;;;;;;1.80;1.60;;;28.90;91.60;;;;;;4224751;28;20031;-63
2021/08/09 10:25:51;;;;;;;4.57;2.08;;;28.90;91.80;;;;;;4224524;28;20040;-63
2021/08/09 10:27:53;;;;;;;1.98;1.70;;;29.00;91.80;;;;;;4225075;28;20035;-61
2021/08/09 10:30:00;;;;;;;2.97;2.40;;;29.10;91.70;;;;;;4224268;28;20044;-62
2021/08/09 10:32:19;;;;;;;4.65;2.65;;;29.10;91.60;;;;;;4224850;28;20035;-63
2021/08/09 10:34:40;;;;;;;2.20;1.80;;;29.10;91.60;;;;;;4223867;28;20039;-63
2021/08/09 10:37:35;;;;;;;4.25;1.95;;;29.20;91.30;;;;;;4224640;28;21019;-63
2021/08/09 10:39:55;;;;;;;3.42;2.05;;;29.00;91.60;;;;;;4172041;28;20033;-62